sensor_id;sensor_type;location;lat;lon;timestamp;temperature;humidity
11047;DHT22;5576;50.008;10.596;2023-08-06T00:00:04;16.70;99.90
11047;DHT22;5576;50.008;10.596;2023-08-06T00:02:35;16.60;99.90
11047;DHT22;5576;50.008;10.596;2023-08-06T00:05:01;16.50;99.90
11047;DHT22;5576;50.008;10.596;2023-08-06T00:07:28;16.60;99.90
11047;DHT22;5576;50.008;10.596;2023-08-06T00:09:54;16.60;99.90
11047;DHT22;5576;50.008;10.596;2023-08-06T00:12:19;13.30;99.90
11047;DHT22;5576;50.008;10.596;2023-08-06T00:14:45;16.50;99.90
11047;DHT22;5576;50.008;10.596;2023-08-06T00:17:11;15.30;99.90
11047;DHT22;5576;50.008;10.596;2023-08-06T00:19:36;16.60;99.90
11047;DHT22;5576;50.008;10.596;2023-08-06T00:22:03;16.60;99.90
11047;DHT22;5576;50.008;10.596;2023-08-06T00:24:28;16.60;99.90
11047;DHT22;5576;50.008;10.596;2023-08-06T00:26:54;16.50;99.90
11047;DHT22;5576;50.008;10.596;2023-08-06T00:29:20;16.50;99.90
11047;DHT22;5576;50.008;10.596;2023-08-06T00:31:46;16.50;99.90
11047;DHT22;5576;50.008;10.596;2023-08-06T00:34:12;15.20;99.90
11047;DHT22;5576;50.008;10.596;2023-08-06T00:36:38;16.40;99.90
11047;DHT22;5576;50.008;10.596;2023-08-06T00:39:03;16.40;99.90
11047;DHT22;5576;50.008;10.596;2023-08-06T00:41:29;16.30;99.90
11047;DHT22;5576;50.008;10.596;2023-08-06T00:43:55;16.40;99.90
11047;DHT22;5576;50.008;10.596;2023-08-06T00:46:21;19.90;99.90
11047;DHT22;5576;50.008;10.596;2023-08-06T00:48:47;16.30;99.90
11047;DHT22;5576;50.008;10.596;2023-08-06T00:51:13;16.20;99.90
11047;DHT22;5576;50.008;10.596;2023-08-06T00:53:40;17.00;99.90
11047;DHT22;5576;50.008;10.596;2023-08-06T00:56:06;16.20;99.90
11047;DHT22;5576;50.008;10.596;2023-08-06T00:58:33;16.30;99.90
11047;DHT22;5576;50.008;10.596;2023-08-06T01:01:00;16.30;99.90
11047;DHT22;5576;50.008;10.596;2023-08-06T01:03:25;16.10;99.90
11047;DHT22;5576;50.008;10.596;2023-08-06T01:05:51;16.10;99.90
11047;DHT22;5576;50.008;10.596;2023-08-06T01:08:44;16.00;99.90
11047;DHT22;5576;50.008;10.596;2023-08-06T01:14:05;16.00;99.90
11047;DHT22;5576;50.008;10.596;2023-08-06T01:16:33;15.80;99.90
11047;DHT22;5576;50.008;10.596;2023-08-06T01:18:59;15.80;99.90
11047;DHT22;5576;50.008;10.596;2023-08-06T01:21:25;15.90;99.90
11047;DHT22;5576;50.008;10.596;2023-08-06T01:23:50;15.90;99.90
11047;DHT22;5576;50.008;10.596;2023-08-06T01:26:39;15.90;99.90
11047;DHT22;5576;50.008;10.596;2023-08-06T01:29:15;15.90;99.90
11047;DHT22;5576;50.008;10.596;2023-08-06T01:31:44;15.90;99.90
11047;DHT22;5576;50.008;10.596;2023-08-06T01:34:16;15.80;99.90
11047;DHT22;5576;50.008;10.596;2023-08-06T01:36:43;18.50;99.90
11047;DHT22;5576;50.008;10.596;2023-08-06T01:39:09;14.40;99.90
11047;DHT22;5576;50.008;10.596;2023-08-06T01:41:34;16.40;99.90
11047;DHT22;5576;50.008;10.596;2023-08-06T01:44:00;14.40;99.90
11047;DHT22;5576;50.008;10.596;2023-08-06T01:46:26;15.70;99.90
11047;DHT22;5576;50.008;10.596;2023-08-06T01:48:52;15.70;99.90
11047;DHT22;5576;50.008;10.596;2023-08-06T01:51:17;15.70;99.90
11047;DHT22;5576;50.008;10.596;2023-08-06T01:53:43;11.60;99.90
11047;DHT22;5576;50.008;10.596;2023-08-06T01:56:09;15.60;99.90
11047;DHT22;5576;50.008;10.596;2023-08-06T01:58:35;15.60;99.90
11047;DHT22;5576;50.008;10.596;2023-08-06T02:01:02;15.60;99.90
11047;DHT22;5576;50.008;10.596;2023-08-06T02:03:28;15.50;99.90
11047;DHT22;5576;50.008;10.596;2023-08-06T02:05:53;15.60;99.90
11047;DHT22;5576;50.008;10.596;2023-08-06T02:08:19;17.20;99.90
11047;DHT22;5576;50.008;10.596;2023-08-06T02:10:46;15.50;99.90
11047;DHT22;5576;50.008;10.596;2023-08-06T02:13:11;15.50;99.90
11047;DHT22;5576;50.008;10.596;2023-08-06T02:15:45;15.10;99.90
11047;DHT22;5576;50.008;10.596;2023-08-06T02:18:13;15.50;99.90
11047;DHT22;5576;50.008;10.596;2023-08-06T02:20:40;15.50;99.90
11047;DHT22;5576;50.008;10.596;2023-08-06T02:23:06;15.50;99.90
11047;DHT22;5576;50.008;10.596;2023-08-06T02:25:32;14.20;99.90
11047;DHT22;5576;50.008;10.596;2023-08-06T02:27:59;15.50;99.90
11047;DHT22;5576;50.008;10.596;2023-08-06T02:30:25;15.50;99.90
11047;DHT22;5576;50.008;10.596;2023-08-06T02:32:50;15.50;99.90
11047;DHT22;5576;50.008;10.596;2023-08-06T02:35:16;15.50;99.90
11047;DHT22;5576;50.008;10.596;2023-08-06T02:37:42;15.50;99.90
11047;DHT22;5576;50.008;10.596;2023-08-06T02:40:08;15.50;99.90
11047;DHT22;5576;50.008;10.596;2023-08-06T02:42:33;15.50;99.90
11047;DHT22;5576;50.008;10.596;2023-08-06T02:44:59;15.40;99.90
11047;DHT22;5576;50.008;10.596;2023-08-06T02:47:25;15.50;99.90
11047;DHT22;5576;50.008;10.596;2023-08-06T02:49:51;15.50;99.90
11047;DHT22;5576;50.008;10.596;2023-08-06T02:52:16;16.60;99.90
11047;DHT22;5576;50.008;10.596;2023-08-06T02:54:42;15.40;99.90
11047;DHT22;5576;50.008;10.596;2023-08-06T02:57:09;15.30;99.90
11047;DHT22;5576;50.008;10.596;2023-08-06T02:59:35;15.30;99.90
11047;DHT22;5576;50.008;10.596;2023-08-06T03:02:06;18.20;99.90
11047;DHT22;5576;50.008;10.596;2023-08-06T03:04:43;15.30;99.90
11047;DHT22;5576;50.008;10.596;2023-08-06T03:07:10;15.30;99.90
11047;DHT22;5576;50.008;10.596;2023-08-06T03:09:45;15.30;99.90
11047;DHT22;5576;50.008;10.596;2023-08-06T03:12:11;15.30;99.90
11047;DHT22;5576;50.008;10.596;2023-08-06T03:14:38;15.20;99.90
11047;DHT22;5576;50.008;10.596;2023-08-06T03:17:06;13.30;99.90
11047;DHT22;5576;50.008;10.596;2023-08-06T03:19:31;15.30;99.90
11047;DHT22;5576;50.008;10.596;2023-08-06T03:21:58;15.30;99.90
11047;DHT22;5576;50.008;10.596;2023-08-06T03:24:24;15.10;99.90
11047;DHT22;5576;50.008;10.596;2023-08-06T03:26:51;15.00;99.90
11047;DHT22;5576;50.008;10.596;2023-08-06T03:29:16;15.00;99.90
11047;DHT22;5576;50.008;10.596;2023-08-06T03:31:43;18.80;99.90
11047;DHT22;5576;50.008;10.596;2023-08-06T03:34:12;18.70;99.90
11047;DHT22;5576;50.008;10.596;2023-08-06T03:36:37;14.90;99.90
11047;DHT22;5576;50.008;10.596;2023-08-06T03:39:03;14.80;99.90
11047;DHT22;5576;50.008;10.596;2023-08-06T03:41:31;14.90;99.90
11047;DHT22;5576;50.008;10.596;2023-08-06T03:43:57;14.90;99.90
11047;DHT22;5576;50.008;10.596;2023-08-06T03:46:25;14.80;99.90
11047;DHT22;5576;50.008;10.596;2023-08-06T03:48:51;18.70;99.90
11047;DHT22;5576;50.008;10.596;2023-08-06T03:51:17;14.80;99.90
11047;DHT22;5576;50.008;10.596;2023-08-06T03:53:46;14.70;99.90
11047;DHT22;5576;50.008;10.596;2023-08-06T03:56:11;14.80;99.90
11047;DHT22;5576;50.008;10.596;2023-08-06T03:58:37;14.80;99.90
11047;DHT22;5576;50.008;10.596;2023-08-06T04:01:03;14.70;99.90
11047;DHT22;5576;50.008;10.596;2023-08-06T04:03:39;14.80;99.90
11047;DHT22;5576;50.008;10.596;2023-08-06T04:06:04;14.90;99.90
11047;DHT22;5576;50.008;10.596;2023-08-06T04:08:30;14.80;99.90
11047;DHT22;5576;50.008;10.596;2023-08-06T04:10:57;14.90;99.90
11047;DHT22;5576;50.008;10.596;2023-08-06T04:13:23;14.30;99.90
11047;DHT22;5576;50.008;10.596;2023-08-06T04:15:49;15.00;99.90
11047;DHT22;5576;50.008;10.596;2023-08-06T04:18:15;15.00;99.90
11047;DHT22;5576;50.008;10.596;2023-08-06T04:20:45;14.90;99.90
11047;DHT22;5576;50.008;10.596;2023-08-06T04:23:11;15.20;99.90
11047;DHT22;5576;50.008;10.596;2023-08-06T04:25:37;14.90;99.90
11047;DHT22;5576;50.008;10.596;2023-08-06T04:28:03;14.90;99.90
11047;DHT22;5576;50.008;10.596;2023-08-06T04:30:29;14.90;99.90
11047;DHT22;5576;50.008;10.596;2023-08-06T04:32:56;14.80;99.90
11047;DHT22;5576;50.008;10.596;2023-08-06T04:35:24;17.30;99.90
11047;DHT22;5576;50.008;10.596;2023-08-06T04:37:50;12.30;99.90
11047;DHT22;5576;50.008;10.596;2023-08-06T04:40:15;14.80;99.90
11047;DHT22;5576;50.008;10.596;2023-08-06T04:42:41;14.70;99.90
11047;DHT22;5576;50.008;10.596;2023-08-06T04:45:07;14.70;99.90
11047;DHT22;5576;50.008;10.596;2023-08-06T04:47:33;14.80;99.90
11047;DHT22;5576;50.008;10.596;2023-08-06T04:49:59;13.20;99.90
11047;DHT22;5576;50.008;10.596;2023-08-06T04:52:24;14.80;99.90
11047;DHT22;5576;50.008;10.596;2023-08-06T04:54:54;14.80;99.90
11047;DHT22;5576;50.008;10.596;2023-08-06T04:57:20;14.90;99.90
11047;DHT22;5576;50.008;10.596;2023-08-06T04:59:46;14.90;99.90
11047;DHT22;5576;50.008;10.596;2023-08-06T05:02:12;12.70;99.90
11047;DHT22;5576;50.008;10.596;2023-08-06T05:04:37;15.00;99.90
11047;DHT22;5576;50.008;10.596;2023-08-06T05:07:05;15.10;99.90
11047;DHT22;5576;50.008;10.596;2023-08-06T05:09:31;15.00;99.90
11047;DHT22;5576;50.008;10.596;2023-08-06T05:11:56;15.10;99.90
11047;DHT22;5576;50.008;10.596;2023-08-06T05:14:22;15.00;99.90
11047;DHT22;5576;50.008;10.596;2023-08-06T05:16:48;15.10;99.90
11047;DHT22;5576;50.008;10.596;2023-08-06T05:19:13;15.10;99.90
11047;DHT22;5576;50.008;10.596;2023-08-06T05:21:39;15.10;99.90
11047;DHT22;5576;50.008;10.596;2023-08-06T05:24:05;15.10;99.90
11047;DHT22;5576;50.008;10.596;2023-08-06T05:26:31;15.20;99.90
11047;DHT22;5576;50.008;10.596;2023-08-06T05:28:56;15.10;99.90
11047;DHT22;5576;50.008;10.596;2023-08-06T05:31:22;15.30;99.90
11047;DHT22;5576;50.008;10.596;2023-08-06T05:33:48;15.10;99.90
11047;DHT22;5576;50.008;10.596;2023-08-06T05:36:13;16.10;99.90
11047;DHT22;5576;50.008;10.596;2023-08-06T05:38:39;15.00;99.90
11047;DHT22;5576;50.008;10.596;2023-08-06T05:41:05;15.00;99.90
11047;DHT22;5576;50.008;10.596;2023-08-06T05:43:30;15.00;99.90
11047;DHT22;5576;50.008;10.596;2023-08-06T05:45:56;15.00;99.90
11047;DHT22;5576;50.008;10.596;2023-08-06T05:48:22;15.00;99.90
11047;DHT22;5576;50.008;10.596;2023-08-06T05:50:51;15.00;99.90
11047;DHT22;5576;50.008;10.596;2023-08-06T05:53:17;15.00;99.90
11047;DHT22;5576;50.008;10.596;2023-08-06T05:55:43;16.70;99.90
11047;DHT22;5576;50.008;10.596;2023-08-06T05:58:08;15.10;99.90
11047;DHT22;5576;50.008;10.596;2023-08-06T06:00:34;15.10;99.90
11047;DHT22;5576;50.008;10.596;2023-08-06T06:03:00;15.10;99.90
11047;DHT22;5576;50.008;10.596;2023-08-06T06:05:27;15.10;99.90
11047;DHT22;5576;50.008;10.596;2023-08-06T06:07:52;15.10;99.90
11047;DHT22;5576;50.008;10.596;2023-08-06T06:10:18;15.10;99.90
11047;DHT22;5576;50.008;10.596;2023-08-06T06:12:44;19.10;99.90
11047;DHT22;5576;50.008;10.596;2023-08-06T06:15:10;19.40;99.90
11047;DHT22;5576;50.008;10.596;2023-08-06T06:17:35;15.20;99.90
11047;DHT22;5576;50.008;10.596;2023-08-06T06:20:01;16.60;99.90
11047;DHT22;5576;50.008;10.596;2023-08-06T06:22:29;17.60;99.90
11047;DHT22;5576;50.008;10.596;2023-08-06T06:24:55;15.40;99.90
11047;DHT22;5576;50.008;10.596;2023-08-06T06:27:21;15.50;99.90
11047;DHT22;5576;50.008;10.596;2023-08-06T06:29:47;15.60;99.90
11047;DHT22;5576;50.008;10.596;2023-08-06T06:32:12;15.70;99.90
11047;DHT22;5576;50.008;10.596;2023-08-06T06:34:38;13.10;99.90
11047;DHT22;5576;50.008;10.596;2023-08-06T06:37:04;15.90;99.90
11047;DHT22;5576;50.008;10.596;2023-08-06T06:39:30;15.90;99.90
11047;DHT22;5576;50.008;10.596;2023-08-06T06:41:55;15.90;99.90
11047;DHT22;5576;50.008;10.596;2023-08-06T06:44:30;15.90;99.90
11047;DHT22;5576;50.008;10.596;2023-08-06T06:46:55;12.80;99.90
11047;DHT22;5576;50.008;10.596;2023-08-06T06:49:21;14.00;99.90
11047;DHT22;5576;50.008;10.596;2023-08-06T06:51:47;16.10;99.90
11047;DHT22;5576;50.008;10.596;2023-08-06T06:54:12;16.20;99.90
11047;DHT22;5576;50.008;10.596;2023-08-06T06:56:38;16.30;99.90
11047;DHT22;5576;50.008;10.596;2023-08-06T06:59:04;18.80;99.90
11047;DHT22;5576;50.008;10.596;2023-08-06T07:01:29;16.30;99.90
11047;DHT22;5576;50.008;10.596;2023-08-06T07:03:55;17.60;99.90
11047;DHT22;5576;50.008;10.596;2023-08-06T07:06:22;16.40;99.90
11047;DHT22;5576;50.008;10.596;2023-08-06T07:08:48;16.40;99.90
11047;DHT22;5576;50.008;10.596;2023-08-06T07:11:13;16.60;99.90
11047;DHT22;5576;50.008;10.596;2023-08-06T07:13:39;16.60;99.90
11047;DHT22;5576;50.008;10.596;2023-08-06T07:16:05;16.60;99.90
11047;DHT22;5576;50.008;10.596;2023-08-06T07:18:31;16.50;99.90
11047;DHT22;5576;50.008;10.596;2023-08-06T07:20:56;16.60;99.90
11047;DHT22;5576;50.008;10.596;2023-08-06T07:23:24;16.60;99.90
11047;DHT22;5576;50.008;10.596;2023-08-06T07:25:50;16.60;99.90
11047;DHT22;5576;50.008;10.596;2023-08-06T07:28:16;16.60;99.90
11047;DHT22;5576;50.008;10.596;2023-08-06T07:30:43;16.70;99.90
11047;DHT22;5576;50.008;10.596;2023-08-06T07:33:10;16.80;99.90
11047;DHT22;5576;50.008;10.596;2023-08-06T07:35:36;18.30;99.90
11047;DHT22;5576;50.008;10.596;2023-08-06T07:38:02;20.40;99.90
11047;DHT22;5576;50.008;10.596;2023-08-06T07:40:28;17.00;99.90
11047;DHT22;5576;50.008;10.596;2023-08-06T07:42:54;17.10;99.90
11047;DHT22;5576;50.008;10.596;2023-08-06T07:45:20;17.20;99.90
11047;DHT22;5576;50.008;10.596;2023-08-06T07:47:46;17.20;99.90
11047;DHT22;5576;50.008;10.596;2023-08-06T07:50:13;18.00;99.90
11047;DHT22;5576;50.008;10.596;2023-08-06T07:52:39;17.30;99.90
11047;DHT22;5576;50.008;10.596;2023-08-06T07:55:05;16.70;99.90
11047;DHT22;5576;50.008;10.596;2023-08-06T07:57:32;17.30;99.90
11047;DHT22;5576;50.008;10.596;2023-08-06T07:59:57;17.20;99.90
11047;DHT22;5576;50.008;10.596;2023-08-06T08:02:24;17.20;99.90
11047;DHT22;5576;50.008;10.596;2023-08-06T08:04:50;20.10;99.90
11047;DHT22;5576;50.008;10.596;2023-08-06T08:07:15;16.70;99.90
11047;DHT22;5576;50.008;10.596;2023-08-06T08:09:41;16.70;99.90
11047;DHT22;5576;50.008;10.596;2023-08-06T08:12:07;16.60;99.90
11047;DHT22;5576;50.008;10.596;2023-08-06T08:14:33;16.50;99.90
11047;DHT22;5576;50.008;10.596;2023-08-06T08:17:02;16.50;99.90
11047;DHT22;5576;50.008;10.596;2023-08-06T08:19:29;14.00;99.90
11047;DHT22;5576;50.008;10.596;2023-08-06T08:21:54;16.40;99.90
11047;DHT22;5576;50.008;10.596;2023-08-06T08:24:21;16.40;99.90
11047;DHT22;5576;50.008;10.596;2023-08-06T08:26:51;20.00;99.90
11047;DHT22;5576;50.008;10.596;2023-08-06T08:29:17;16.40;99.90
11047;DHT22;5576;50.008;10.596;2023-08-06T08:31:43;16.30;99.90
11047;DHT22;5576;50.008;10.596;2023-08-06T08:34:09;16.40;99.90
11047;DHT22;5576;50.008;10.596;2023-08-06T08:36:35;16.50;99.90
11047;DHT22;5576;50.008;10.596;2023-08-06T08:39:01;16.50;99.90
11047;DHT22;5576;50.008;10.596;2023-08-06T08:41:29;16.60;99.90
11047;DHT22;5576;50.008;10.596;2023-08-06T08:43:56;16.60;99.90
11047;DHT22;5576;50.008;10.596;2023-08-06T08:46:26;16.70;99.90
11047;DHT22;5576;50.008;10.596;2023-08-06T08:48:53;16.80;99.90
11047;DHT22;5576;50.008;10.596;2023-08-06T08:51:19;16.90;99.90
11047;DHT22;5576;50.008;10.596;2023-08-06T08:53:47;16.90;99.90
11047;DHT22;5576;50.008;10.596;2023-08-06T08:56:16;16.90;99.90
11047;DHT22;5576;50.008;10.596;2023-08-06T08:58:41;16.90;99.90
11047;DHT22;5576;50.008;10.596;2023-08-06T09:01:07;16.90;99.90
11047;DHT22;5576;50.008;10.596;2023-08-06T09:03:35;16.90;99.90
11047;DHT22;5576;50.008;10.596;2023-08-06T09:06:02;17.00;99.90
11047;DHT22;5576;50.008;10.596;2023-08-06T09:08:35;16.00;99.90
11047;DHT22;5576;50.008;10.596;2023-08-06T09:11:03;17.00;99.90
11047;DHT22;5576;50.008;10.596;2023-08-06T09:13:30;17.10;99.90
11047;DHT22;5576;50.008;10.596;2023-08-06T09:15:55;17.10;99.90
11047;DHT22;5576;50.008;10.596;2023-08-06T09:18:26;14.00;99.90
11047;DHT22;5576;50.008;10.596;2023-08-06T09:20:53;17.20;99.90
11047;DHT22;5576;50.008;10.596;2023-08-06T09:23:19;17.20;99.90
11047;DHT22;5576;50.008;10.596;2023-08-06T09:25:46;17.30;99.90
11047;DHT22;5576;50.008;10.596;2023-08-06T09:28:12;15.50;99.90
11047;DHT22;5576;50.008;10.596;2023-08-06T09:30:38;17.30;99.90
11047;DHT22;5576;50.008;10.596;2023-08-06T09:33:08;17.10;99.90
11047;DHT22;5576;50.008;10.596;2023-08-06T09:35:39;17.10;99.90
11047;DHT22;5576;50.008;10.596;2023-08-06T09:38:07;17.10;99.90
11047;DHT22;5576;50.008;10.596;2023-08-06T09:40:33;17.10;99.90
11047;DHT22;5576;50.008;10.596;2023-08-06T09:42:59;17.10;99.90
11047;DHT22;5576;50.008;10.596;2023-08-06T09:45:30;17.10;99.90
11047;DHT22;5576;50.008;10.596;2023-08-06T09:47:57;17.00;99.90
11047;DHT22;5576;50.008;10.596;2023-08-06T09:50:28;17.10;99.90
11047;DHT22;5576;50.008;10.596;2023-08-06T09:52:55;17.10;99.90
11047;DHT22;5576;50.008;10.596;2023-08-06T09:55:21;18.90;99.90
11047;DHT22;5576;50.008;10.596;2023-08-06T09:57:49;17.10;99.90
11047;DHT22;5576;50.008;10.596;2023-08-06T10:00:15;17.10;99.90
11047;DHT22;5576;50.008;10.596;2023-08-06T10:02:43;17.10;99.90
11047;DHT22;5576;50.008;10.596;2023-08-06T10:05:09;18.80;99.90
11047;DHT22;5576;50.008;10.596;2023-08-06T10:07:35;17.20;99.90
11047;DHT22;5576;50.008;10.596;2023-08-06T10:10:02;17.20;99.90
11047;DHT22;5576;50.008;10.596;2023-08-06T10:12:33;17.30;99.90
11047;DHT22;5576;50.008;10.596;2023-08-06T10:15:02;17.30;99.90
11047;DHT22;5576;50.008;10.596;2023-08-06T10:17:31;17.50;99.90
11047;DHT22;5576;50.008;10.596;2023-08-06T10:19:59;17.60;99.90
11047;DHT22;5576;50.008;10.596;2023-08-06T10:22:25;17.60;99.90
11047;DHT22;5576;50.008;10.596;2023-08-06T10:24:54;17.70;99.90
11047;DHT22;5576;50.008;10.596;2023-08-06T10:27:23;18.00;99.90
11047;DHT22;5576;50.008;10.596;2023-08-06T10:29:53;18.00;99.90
11047;DHT22;5576;50.008;10.596;2023-08-06T10:32:19;18.10;99.90
11047;DHT22;5576;50.008;10.596;2023-08-06T10:35:00;18.10;99.90
11047;DHT22;5576;50.008;10.596;2023-08-06T10:37:45;18.10;99.90
11047;DHT22;5576;50.008;10.596;2023-08-06T10:40:10;18.20;99.90
11047;DHT22;5576;50.008;10.596;2023-08-06T10:42:36;14.00;99.90
11047;DHT22;5576;50.008;10.596;2023-08-06T10:45:14;13.90;99.90
11047;DHT22;5576;50.008;10.596;2023-08-06T10:47:41;17.70;99.90
11047;DHT22;5576;50.008;10.596;2023-08-06T10:50:10;21.40;99.90
11047;DHT22;5576;50.008;10.596;2023-08-06T10:52:36;17.50;99.90
11047;DHT22;5576;50.008;10.596;2023-08-06T10:55:02;20.00;99.90
11047;DHT22;5576;50.008;10.596;2023-08-06T10:57:27;17.20;99.90
11047;DHT22;5576;50.008;10.596;2023-08-06T10:59:53;16.30;99.90
11047;DHT22;5576;50.008;10.596;2023-08-06T11:02:19;16.20;99.90
11047;DHT22;5576;50.008;10.596;2023-08-06T11:04:45;17.30;99.90
11047;DHT22;5576;50.008;10.596;2023-08-06T11:07:10;17.90;99.90
11047;DHT22;5576;50.008;10.596;2023-08-06T11:09:37;18.00;99.90
11047;DHT22;5576;50.008;10.596;2023-08-06T11:12:09;18.40;99.90
11047;DHT22;5576;50.008;10.596;2023-08-06T11:14:35;18.40;99.90
11047;DHT22;5576;50.008;10.596;2023-08-06T11:17:01;18.50;99.90
11047;DHT22;5576;50.008;10.596;2023-08-06T11:19:27;18.40;99.90
11047;DHT22;5576;50.008;10.596;2023-08-06T11:21:52;18.50;99.90
11047;DHT22;5576;50.008;10.596;2023-08-06T11:24:18;18.50;99.90
11047;DHT22;5576;50.008;10.596;2023-08-06T11:26:44;18.50;99.90
11047;DHT22;5576;50.008;10.596;2023-08-06T11:29:10;18.50;99.90
11047;DHT22;5576;50.008;10.596;2023-08-06T11:31:36;18.50;99.90
11047;DHT22;5576;50.008;10.596;2023-08-06T11:34:02;20.70;99.90
11047;DHT22;5576;50.008;10.596;2023-08-06T11:38:57;18.70;99.90
11047;DHT22;5576;50.008;10.596;2023-08-06T11:41:23;19.10;99.90
11047;DHT22;5576;50.008;10.596;2023-08-06T11:43:49;19.20;99.90
11047;DHT22;5576;50.008;10.596;2023-08-06T11:46:14;19.30;99.90
11047;DHT22;5576;50.008;10.596;2023-08-06T11:48:58;19.60;99.90
11047;DHT22;5576;50.008;10.596;2023-08-06T11:51:25;19.80;99.90
11047;DHT22;5576;50.008;10.596;2023-08-06T11:53:58;19.90;99.90
11047;DHT22;5576;50.008;10.596;2023-08-06T11:56:25;22.00;99.90
11047;DHT22;5576;50.008;10.596;2023-08-06T11:58:51;19.90;99.90
11047;DHT22;5576;50.008;10.596;2023-08-06T12:01:18;20.00;99.90
11047;DHT22;5576;50.008;10.596;2023-08-06T12:03:44;20.10;99.90
11047;DHT22;5576;50.008;10.596;2023-08-06T12:06:09;20.10;99.90
11047;DHT22;5576;50.008;10.596;2023-08-06T12:08:35;20.00;99.90
11047;DHT22;5576;50.008;10.596;2023-08-06T12:11:01;20.00;99.90
11047;DHT22;5576;50.008;10.596;2023-08-06T12:13:27;20.20;99.90
11047;DHT22;5576;50.008;10.596;2023-08-06T12:15:54;20.20;99.90
11047;DHT22;5576;50.008;10.596;2023-08-06T12:18:19;20.20;99.90
11047;DHT22;5576;50.008;10.596;2023-08-06T12:20:45;20.20;99.90
11047;DHT22;5576;50.008;10.596;2023-08-06T12:23:11;20.40;99.90
11047;DHT22;5576;50.008;10.596;2023-08-06T12:25:41;20.50;99.90
11047;DHT22;5576;50.008;10.596;2023-08-06T12:28:07;20.30;99.90
11047;DHT22;5576;50.008;10.596;2023-08-06T12:30:34;20.20;99.90
11047;DHT22;5576;50.008;10.596;2023-08-06T12:33:00;20.20;99.90
11047;DHT22;5576;50.008;10.596;2023-08-06T12:35:26;20.40;99.90
11047;DHT22;5576;50.008;10.596;2023-08-06T12:37:52;20.80;99.90
11047;DHT22;5576;50.008;10.596;2023-08-06T12:40:20;17.90;99.90
11047;DHT22;5576;50.008;10.596;2023-08-06T12:42:46;21.00;99.90
11047;DHT22;5576;50.008;10.596;2023-08-06T12:45:12;21.10;99.90
11047;DHT22;5576;50.008;10.596;2023-08-06T12:47:38;21.20;99.90
11047;DHT22;5576;50.008;10.596;2023-08-06T12:50:03;21.30;99.90
11047;DHT22;5576;50.008;10.596;2023-08-06T12:52:29;21.10;99.90
11047;DHT22;5576;50.008;10.596;2023-08-06T12:54:55;20.90;99.90
11047;DHT22;5576;50.008;10.596;2023-08-06T12:57:21;20.40;99.90
11047;DHT22;5576;50.008;10.596;2023-08-06T12:59:46;20.30;99.90
11047;DHT22;5576;50.008;10.596;2023-08-06T13:02:13;19.90;99.90
11047;DHT22;5576;50.008;10.596;2023-08-06T13:04:39;22.40;99.90
11047;DHT22;5576;50.008;10.596;2023-08-06T13:07:05;18.90;99.90
11047;DHT22;5576;50.008;10.596;2023-08-06T13:09:32;18.80;99.90
11047;DHT22;5576;50.008;10.596;2023-08-06T13:11:58;18.60;99.90
11047;DHT22;5576;50.008;10.596;2023-08-06T13:14:25;18.30;99.90
11047;DHT22;5576;50.008;10.596;2023-08-06T13:16:51;17.80;99.90
11047;DHT22;5576;50.008;10.596;2023-08-06T13:19:16;16.90;99.90
11047;DHT22;5576;50.008;10.596;2023-08-06T13:24:15;15.80;99.90
11047;DHT22;5576;50.008;10.596;2023-08-06T13:26:41;17.40;99.90
11047;DHT22;5576;50.008;10.596;2023-08-06T13:29:07;17.30;99.90
11047;DHT22;5576;50.008;10.596;2023-08-06T13:31:32;17.30;99.90
11047;DHT22;5576;50.008;10.596;2023-08-06T13:33:58;17.40;99.90
11047;DHT22;5576;50.008;10.596;2023-08-06T13:36:25;17.40;99.90
11047;DHT22;5576;50.008;10.596;2023-08-06T13:38:51;17.50;99.90
11047;DHT22;5576;50.008;10.596;2023-08-06T13:41:17;17.50;99.90
11047;DHT22;5576;50.008;10.596;2023-08-06T13:43:43;17.50;99.90
11047;DHT22;5576;50.008;10.596;2023-08-06T13:46:10;17.50;99.90
11047;DHT22;5576;50.008;10.596;2023-08-06T13:48:40;16.20;99.90
11047;DHT22;5576;50.008;10.596;2023-08-06T13:51:06;17.70;99.90
11047;DHT22;5576;50.008;10.596;2023-08-06T13:53:31;17.90;99.90
11047;DHT22;5576;50.008;10.596;2023-08-06T13:55:57;17.90;99.90
11047;DHT22;5576;50.008;10.596;2023-08-06T13:58:24;17.80;99.90
11047;DHT22;5576;50.008;10.596;2023-08-06T14:00:52;17.80;99.90
11047;DHT22;5576;50.008;10.596;2023-08-06T14:03:20;17.80;99.90
11047;DHT22;5576;50.008;10.596;2023-08-06T14:05:46;16.40;99.90
11047;DHT22;5576;50.008;10.596;2023-08-06T14:08:12;17.50;99.90
11047;DHT22;5576;50.008;10.596;2023-08-06T14:10:39;17.50;99.90
11047;DHT22;5576;50.008;10.596;2023-08-06T14:13:05;17.40;99.90
11047;DHT22;5576;50.008;10.596;2023-08-06T14:15:30;17.40;99.90
11047;DHT22;5576;50.008;10.596;2023-08-06T14:17:56;17.30;99.90
11047;DHT22;5576;50.008;10.596;2023-08-06T14:20:22;17.30;99.90
11047;DHT22;5576;50.008;10.596;2023-08-06T14:22:48;17.20;99.90
11047;DHT22;5576;50.008;10.596;2023-08-06T14:25:14;17.10;99.90
11047;DHT22;5576;50.008;10.596;2023-08-06T14:27:40;16.90;99.90
11047;DHT22;5576;50.008;10.596;2023-08-06T14:30:07;18.10;99.90
11047;DHT22;5576;50.008;10.596;2023-08-06T14:32:33;16.80;99.90
11047;DHT22;5576;50.008;10.596;2023-08-06T14:34:59;16.80;99.90
11047;DHT22;5576;50.008;10.596;2023-08-06T14:37:25;16.70;99.90
11047;DHT22;5576;50.008;10.596;2023-08-06T14:39:51;16.70;99.90
11047;DHT22;5576;50.008;10.596;2023-08-06T14:42:17;16.80;99.90
11047;DHT22;5576;50.008;10.596;2023-08-06T14:44:43;16.80;99.90
11047;DHT22;5576;50.008;10.596;2023-08-06T14:47:09;16.70;99.90
11047;DHT22;5576;50.008;10.596;2023-08-06T14:49:35;13.50;99.90
11047;DHT22;5576;50.008;10.596;2023-08-06T14:52:00;16.60;99.90
11047;DHT22;5576;50.008;10.596;2023-08-06T14:54:27;16.60;99.90
11047;DHT22;5576;50.008;10.596;2023-08-06T14:56:53;16.50;99.90
11047;DHT22;5576;50.008;10.596;2023-08-06T14:59:19;16.40;99.90
11047;DHT22;5576;50.008;10.596;2023-08-06T15:01:45;16.40;99.90
11047;DHT22;5576;50.008;10.596;2023-08-06T15:04:10;16.30;99.90
11047;DHT22;5576;50.008;10.596;2023-08-06T15:06:36;16.20;99.90
11047;DHT22;5576;50.008;10.596;2023-08-06T15:09:02;16.20;99.90
11047;DHT22;5576;50.008;10.596;2023-08-06T15:11:27;16.20;99.90
11047;DHT22;5576;50.008;10.596;2023-08-06T15:13:53;16.20;99.90
11047;DHT22;5576;50.008;10.596;2023-08-06T15:16:19;16.20;99.90
11047;DHT22;5576;50.008;10.596;2023-08-06T15:18:45;15.20;99.90
11047;DHT22;5576;50.008;10.596;2023-08-06T15:21:10;16.30;99.90
11047;DHT22;5576;50.008;10.596;2023-08-06T15:23:36;16.20;99.90
11047;DHT22;5576;50.008;10.596;2023-08-06T15:26:02;16.20;99.90
11047;DHT22;5576;50.008;10.596;2023-08-06T15:28:28;16.20;99.90
11047;DHT22;5576;50.008;10.596;2023-08-06T15:30:55;16.10;99.90
11047;DHT22;5576;50.008;10.596;2023-08-06T15:33:21;16.10;99.90